Time;durP1;ratioP1;P1;durP2;ratioP2;P2;SDS_P1;SDS_P2;PMS_P1;PMS_P2;Temp;Humidity;BMP_temperature;BMP_pressure;BME280_temperature;BME280_humidity;BME280_pressure;Samples;Min_cycle;Max_cycle;Signal;HPM_P1;HPM_P2
2023/08/25 00:02:22;;;;;;;6.97;6.28;;;;;;;;;;5066164;28;20691;-72
2023/08/25 00:04:51;;;;;;;7.17;6.47;;;;;;;;;;5068817;28;20490;-71
2023/08/25 00:07:18;;;;;;;7.00;6.30;;;;;;;;;;5066508;28;20408;-72
2023/08/25 00:09:45;;;;;;;7.90;7.03;;;;;;;;;;5064046;28;20439;-71
2023/08/25 00:12:13;;;;;;;7.25;6.55;;;;;;;;;;5063295;28;20855;-71
2023/08/25 00:14:40;;;;;;;7.55;6.75;;;;;;;;;;5067986;28;20430;-72
2023/08/25 00:17:08;;;;;;;8.25;7.55;;;;;;;;;;5068673;28;20418;-72
2023/08/25 00:19:35;;;;;;;7.95;7.05;;;;;;;;;;5067398;28;20432;-72
2023/08/25 00:22:03;;;;;;;8.97;6.63;;;;;;;;;;5065171;28;20456;-71
2023/08/25 00:24:32;;;;;;;7.63;6.88;;;;;;;;;;5067251;28;20946;-71
2023/08/25 00:26:59;;;;;;;7.72;7.03;;;;;;;;;;5062497;28;20424;-71
2023/08/25 00:29:26;;;;;;;7.70;6.43;;;;;;;;;;5068245;28;20947;-71
2023/08/25 00:31:53;;;;;;;7.25;6.65;;;;;;;;;;5067809;28;20870;-71
2023/08/25 00:34:20;;;;;;;7.17;6.50;;;;;;;;;;5066721;28;20929;-71
2023/08/25 00:36:47;;;;;;;7.30;6.50;;;;;;;;;;5067410;28;20411;-71
2023/08/25 00:39:16;;;;;;;6.45;5.50;;;;;;;;;;5066963;28;20431;-72
2023/08/25 00:41:43;;;;;;;7.55;6.15;;;;;;;;;;5067571;28;20428;-70
2023/08/25 00:44:10;;;;;;;7.13;6.10;;;;;;;;;;5067611;28;20418;-72
2023/08/25 00:46:37;;;;;;;6.05;5.32;;;;;;;;;;5067587;28;20423;-70
2023/08/25 00:49:04;;;;;;;6.65;4.80;;;;;;;;;;5068377;28;20415;-71
2023/08/25 00:51:31;;;;;;;5.72;5.13;;;;;;;;;;5068045;28;20415;-68
2023/08/25 00:53:59;;;;;;;5.32;4.70;;;;;;;;;;5062945;28;20434;-71
2023/08/25 00:56:27;;;;;;;5.90;5.05;;;;;;;;;;5068339;28;20411;-72
2023/08/25 00:58:55;;;;;;;6.00;5.00;;;;;;;;;;5066240;28;20435;-71
2023/08/25 01:01:23;;;;;;;5.10;4.60;;;;;;;;;;5067221;28;20526;-71
2023/08/25 01:03:50;;;;;;;5.60;4.40;;;;;;;;;;5066885;28;20424;-71
2023/08/25 01:06:17;;;;;;;5.75;4.10;;;;;;;;;;5068621;28;20782;-71
2023/08/25 01:08:44;;;;;;;4.30;3.90;;;;;;;;;;5067630;28;20414;-71
2023/08/25 01:11:21;;;;;;;4.50;4.05;;;;;;;;;;5067680;28;20426;-71
2023/08/25 01:13:54;;;;;;;5.00;3.95;;;;;;;;;;5067496;28;20901;-70
2023/08/25 01:16:25;;;;;;;6.00;4.03;;;;;;;;;;5068318;28;20890;-70
2023/08/25 01:18:52;;;;;;;5.20;3.80;;;;;;;;;;5069407;28;20408;-71
2023/08/25 01:21:20;;;;;;;5.25;3.90;;;;;;;;;;5065418;28;20488;-71
2023/08/25 01:23:57;;;;;;;5.05;3.90;;;;;;;;;;5066195;28;20424;-72
2023/08/25 01:26:26;;;;;;;4.40;4.00;;;;;;;;;;5068016;28;20912;-70
2023/08/25 01:28:53;;;;;;;4.50;3.80;;;;;;;;;;5066655;28;20443;-73
2023/08/25 01:31:20;;;;;;;4.88;4.10;;;;;;;;;;5066791;28;20431;-70
2023/08/25 01:33:47;;;;;;;4.53;4.13;;;;;;;;;;5067404;28;20415;-71
2023/08/25 01:36:19;;;;;;;5.57;4.07;;;;;;;;;;5070540;28;20434;-71
2023/08/25 01:38:49;;;;;;;5.68;4.15;;;;;;;;;;5070780;28;20428;-70
2023/08/25 01:41:21;;;;;;;4.93;4.25;;;;;;;;;;5071322;28;20412;-68
2023/08/25 01:43:51;;;;;;;4.70;4.22;;;;;;;;;;5070366;28;20407;-70
2023/08/25 01:46:19;;;;;;;4.50;3.80;;;;;;;;;;5071336;28;20920;-72
2023/08/25 01:48:47;;;;;;;4.93;4.20;;;;;;;;;;5071700;28;20408;-72
2023/08/25 01:51:15;;;;;;;5.07;3.90;;;;;;;;;;5065532;28;20420;-72
2023/08/25 01:53:43;;;;;;;4.80;4.30;;;;;;;;;;5069973;28;20424;-70
2023/08/25 01:56:10;;;;;;;6.05;4.63;;;;;;;;;;5070952;28;20419;-70
2023/08/25 01:58:37;;;;;;;4.97;4.30;;;;;;;;;;5070138;28;20447;-72
2023/08/25 02:01:06;;;;;;;5.80;5.20;;;;;;;;;;5070594;28;20430;-70
2023/08/25 02:03:33;;;;;;;6.20;5.60;;;;;;;;;;5068725;28;20435;-70
2023/08/25 02:06:00;;;;;;;5.63;5.13;;;;;;;;;;5062111;28;20423;-71
2023/08/25 02:08:27;;;;;;;7.70;4.85;;;;;;;;;;5071125;28;20427;-70
2023/08/25 02:10:54;;;;;;;5.75;5.07;;;;;;;;;;5069937;28;20442;-70
2023/08/25 02:13:21;;;;;;;5.90;4.90;;;;;;;;;;5070966;28;20840;-72
2023/08/25 02:15:50;;;;;;;5.80;5.30;;;;;;;;;;5063364;28;20408;-70
2023/08/25 02:18:19;;;;;;;5.35;4.85;;;;;;;;;;5070748;28;20419;-72
2023/08/25 02:20:46;;;;;;;6.60;5.03;;;;;;;;;;5069739;28;20427;-70
2023/08/25 02:23:13;;;;;;;6.23;4.67;;;;;;;;;;5069067;28;20435;-70
2023/08/25 02:25:40;;;;;;;5.30;4.80;;;;;;;;;;5068928;28;20427;-71
2023/08/25 02:28:07;;;;;;;5.45;4.90;;;;;;;;;;5074858;28;20419;-70
2023/08/25 02:30:34;;;;;;;5.25;4.75;;;;;;;;;;5095452;28;20427;-70
2023/08/25 02:33:01;;;;;;;5.95;4.80;;;;;;;;;;5092298;28;20436;-70
2023/08/25 02:35:30;;;;;;;4.90;4.40;;;;;;;;;;5096038;28;20419;-70
2023/08/25 02:37:58;;;;;;;5.00;4.47;;;;;;;;;;5076370;28;20408;-70
2023/08/25 02:40:25;;;;;;;5.50;5.00;;;;;;;;;;5068851;28;20496;-71
2023/08/25 02:42:53;;;;;;;5.70;5.20;;;;;;;;;;5069246;28;20485;-72
2023/08/25 02:45:20;;;;;;;6.60;4.70;;;;;;;;;;5069908;28;20441;-71
2023/08/25 02:47:47;;;;;;;7.38;5.10;;;;;;;;;;5069230;28;20412;-71
2023/08/25 02:50:14;;;;;;;6.28;5.30;;;;;;;;;;5069003;28;20423;-70
2023/08/25 02:52:42;;;;;;;4.93;4.50;;;;;;;;;;5069375;28;20412;-71
2023/08/25 02:55:09;;;;;;;5.20;4.45;;;;;;;;;;5078589;28;20431;-70
2023/08/25 02:57:37;;;;;;;6.45;4.82;;;;;;;;;;5070907;28;20412;-70
2023/08/25 03:00:04;;;;;;;5.28;4.78;;;;;;;;;;5094936;22;20415;-70
2023/08/25 03:02:32;;;;;;;5.80;4.82;;;;;;;;;;5078781;28;20420;-72
2023/08/25 03:04:59;;;;;;;5.00;4.50;;;;;;;;;;5085990;28;20422;-71
2023/08/25 03:07:26;;;;;;;4.33;3.93;;;;;;;;;;5081028;28;20426;-71
2023/08/25 03:09:54;;;;;;;4.70;4.30;;;;;;;;;;5081821;28;20437;-70
2023/08/25 03:12:22;;;;;;;5.33;4.53;;;;;;;;;;5089097;28;20477;-70
2023/08/25 03:14:49;;;;;;;5.47;4.80;;;;;;;;;;5083174;28;20823;-70
2023/08/25 03:17:16;;;;;;;5.80;4.50;;;;;;;;;;5088257;28;20903;-70
2023/08/25 03:19:43;;;;;;;6.10;4.80;;;;;;;;;;5090010;28;20416;-72
2023/08/25 03:22:10;;;;;;;5.10;4.60;;;;;;;;;;5089396;28;20429;-72
2023/08/25 03:24:37;;;;;;;6.03;5.07;;;;;;;;;;5090310;28;20497;-71
2023/08/25 03:27:06;;;;;;;6.35;4.80;;;;;;;;;;5089003;28;20428;-72
2023/08/25 03:29:33;;;;;;;5.70;4.88;;;;;;;;;;5089904;28;20417;-73
2023/08/25 03:32:00;;;;;;;5.30;4.80;;;;;;;;;;5087405;28;20793;-70
2023/08/25 03:34:29;;;;;;;7.10;5.30;;;;;;;;;;5089897;28;20418;-71
2023/08/25 03:36:56;;;;;;;5.30;4.80;;;;;;;;;;5089212;28;20434;-71
2023/08/25 03:39:24;;;;;;;5.20;4.70;;;;;;;;;;5080431;28;20440;-71
2023/08/25 03:41:51;;;;;;;5.60;5.00;;;;;;;;;;5087595;28;20491;-71
2023/08/25 03:44:19;;;;;;;5.60;4.95;;;;;;;;;;5091645;28;20425;-71
2023/08/25 03:46:46;;;;;;;6.50;5.00;;;;;;;;;;5089997;28;20436;-71
2023/08/25 03:49:13;;;;;;;5.38;4.88;;;;;;;;;;5090321;28;20804;-71
2023/08/25 03:51:40;;;;;;;5.55;5.05;;;;;;;;;;5089216;28;20417;-71
2023/08/25 03:54:08;;;;;;;6.15;4.85;;;;;;;;;;5089659;28;20968;-71
2023/08/25 03:56:35;;;;;;;6.10;5.50;;;;;;;;;;5090282;28;20884;-71
2023/08/25 03:59:02;;;;;;;6.60;5.90;;;;;;;;;;5086104;28;20430;-71
2023/08/25 04:01:30;;;;;;;6.40;5.80;;;;;;;;;;5090585;28;20402;-71
2023/08/25 04:03:57;;;;;;;5.70;5.20;;;;;;;;;;5089955;28;20882;-72
2023/08/25 04:06:24;;;;;;;5.90;5.40;;;;;;;;;;5090054;28;20884;-70
2023/08/25 04:08:51;;;;;;;6.85;5.10;;;;;;;;;;5088067;28;20437;-71
2023/08/25 04:11:18;;;;;;;6.10;5.50;;;;;;;;;;5088429;28;20426;-71
2023/08/25 04:13:45;;;;;;;5.85;5.35;;;;;;;;;;5088578;28;20406;-73
2023/08/25 04:16:12;;;;;;;5.63;5.03;;;;;;;;;;5088602;28;20449;-71
2023/08/25 04:18:41;;;;;;;5.87;5.27;;;;;;;;;;5088500;28;20410;-72
2023/08/25 04:21:08;;;;;;;6.30;5.20;;;;;;;;;;5087938;28;20436;-71
2023/08/25 04:23:35;;;;;;;5.53;5.00;;;;;;;;;;5087029;28;20426;-71
2023/08/25 04:26:02;;;;;;;5.57;5.05;;;;;;;;;;5085626;28;20438;-71
2023/08/25 04:28:29;;;;;;;5.50;5.00;;;;;;;;;;5083291;28;20426;-71
2023/08/25 04:30:56;;;;;;;5.93;5.43;;;;;;;;;;5087804;28;20476;-71
2023/08/25 04:33:23;;;;;;;7.80;6.68;;;;;;;;;;5086395;28;20784;-72
2023/08/25 04:35:52;;;;;;;6.50;5.97;;;;;;;;;;5089195;28;20765;-71
2023/08/25 04:38:19;;;;;;;12.23;8.37;;;;;;;;;;5087877;28;20937;-70
2023/08/25 04:40:46;;;;;;;9.60;8.70;;;;;;;;;;5089213;28;21056;-71
2023/08/25 04:43:13;;;;;;;11.38;10.38;;;;;;;;;;5089445;28;20417;-71
2023/08/25 04:45:40;;;;;;;11.90;10.60;;;;;;;;;;5089189;28;20417;-70
2023/08/25 04:48:07;;;;;;;13.90;12.10;;;;;;;;;;5089209;28;20426;-71
2023/08/25 04:50:34;;;;;;;13.80;12.40;;;;;;;;;;5089660;28;20903;-71
2023/08/25 04:53:03;;;;;;;14.90;12.88;;;;;;;;;;5090286;28;20482;-71
2023/08/25 04:55:30;;;;;;;12.50;11.40;;;;;;;;;;5089135;28;20425;-71
2023/08/25 04:57:57;;;;;;;12.50;11.30;;;;;;;;;;5089250;28;20437;-71
2023/08/25 05:00:24;;;;;;;13.20;11.90;;;;;;;;;;5085905;28;20438;-71
2023/08/25 05:02:51;;;;;;;13.10;11.90;;;;;;;;;;5089567;28;20430;-71
2023/08/25 05:05:18;;;;;;;13.57;12.40;;;;;;;;;;5089080;28;20430;-70
2023/08/25 05:07:46;;;;;;;14.32;13.02;;;;;;;;;;5079060;28;20429;-70
2023/08/25 05:10:14;;;;;;;13.87;12.57;;;;;;;;;;5090362;28;20444;-70
2023/08/25 05:12:41;;;;;;;14.20;13.00;;;;;;;;;;5091640;28;20433;-71
2023/08/25 05:15:09;;;;;;;12.93;11.73;;;;;;;;;;5092888;28;20414;-71
2023/08/25 05:17:36;;;;;;;14.82;13.52;;;;;;;;;;5092176;28;20417;-70
2023/08/25 05:20:04;;;;;;;14.05;12.85;;;;;;;;;;5091883;28;20433;-70
2023/08/25 05:22:32;;;;;;;14.32;13.02;;;;;;;;;;5093006;28;20421;-70
2023/08/25 05:24:59;;;;;;;14.90;13.60;;;;;;;;;;5089999;28;20434;-70
2023/08/25 05:27:27;;;;;;;14.05;12.75;;;;;;;;;;5092565;28;20409;-71
2023/08/25 05:29:55;;;;;;;14.68;13.20;;;;;;;;;;5091602;28;20780;-71
2023/08/25 05:32:22;;;;;;;14.73;13.13;;;;;;;;;;5090889;28;20454;-71
2023/08/25 05:34:49;;;;;;;14.90;13.60;;;;;;;;;;5086525;28;20460;-71
2023/08/25 05:37:16;;;;;;;14.60;13.30;;;;;;;;;;5085838;28;20532;-71
2023/08/25 05:39:43;;;;;;;14.45;13.25;;;;;;;;;;5089312;28;21076;-71
2023/08/25 05:42:11;;;;;;;13.90;12.60;;;;;;;;;;5086840;28;20418;-70
2023/08/25 05:44:39;;;;;;;13.20;12.00;;;;;;;;;;5089652;28;20712;-71
2023/08/25 05:47:06;;;;;;;13.32;12.18;;;;;;;;;;5086475;28;20422;-71
2023/08/25 05:49:33;;;;;;;12.80;11.80;;;;;;;;;;5089733;28;20427;-71
2023/08/25 05:52:00;;;;;;;13.02;11.82;;;;;;;;;;5088065;28;20433;-71
2023/08/25 05:54:27;;;;;;;12.80;11.70;;;;;;;;;;5088402;28;20437;-71
2023/08/25 05:56:54;;;;;;;13.00;11.80;;;;;;;;;;5091384;28;20406;-71
2023/08/25 05:59:21;;;;;;;14.13;12.93;;;;;;;;;;5091520;28;20406;-71
2023/08/25 06:01:50;;;;;;;14.50;13.00;;;;;;;;;;5088437;28;20430;-71
2023/08/25 06:04:17;;;;;;;14.00;12.60;;;;;;;;;;5087924;28;20425;-71
2023/08/25 06:06:44;;;;;;;12.20;11.15;;;;;;;;;;5091041;28;20425;-71
2023/08/25 06:09:11;;;;;;;12.30;11.10;;;;;;;;;;5089363;28;20433;-71
2023/08/25 06:11:38;;;;;;;12.70;11.50;;;;;;;;;;5090487;28;20492;-71
2023/08/25 06:14:05;;;;;;;12.02;11.02;;;;;;;;;;5085462;28;20428;-71
2023/08/25 06:16:32;;;;;;;12.57;11.40;;;;;;;;;;5091062;28;20505;-70
2023/08/25 06:19:01;;;;;;;11.63;10.73;;;;;;;;;;5087965;28;20444;-70
2023/08/25 06:21:28;;;;;;;12.20;11.10;;;;;;;;;;5090249;28;20410;-70
2023/08/25 06:23:55;;;;;;;11.50;10.50;;;;;;;;;;5089299;28;20433;-70
2023/08/25 06:26:22;;;;;;;11.70;10.70;;;;;;;;;;5090046;28;20430;-70
2023/08/25 06:28:50;;;;;;;11.63;10.63;;;;;;;;;;5090351;28;20421;-70
2023/08/25 06:31:17;;;;;;;10.90;10.00;;;;;;;;;;5088842;28;20503;-71
2023/08/25 06:33:44;;;;;;;12.07;11.18;;;;;;;;;;5081616;28;20808;-71
2023/08/25 06:36:13;;;;;;;12.50;11.30;;;;;;;;;;5090742;28;21084;-72
2023/08/25 06:38:40;;;;;;;12.20;11.20;;;;;;;;;;5088920;28;20805;-70
2023/08/25 06:41:07;;;;;;;12.02;11.00;;;;;;;;;;5090578;28;20410;-70
2023/08/25 06:43:35;;;;;;;10.98;10.07;;;;;;;;;;5089897;28;20900;-71
2023/08/25 06:46:02;;;;;;;11.60;10.60;;;;;;;;;;5089639;28;20430;-71
2023/08/25 06:48:29;;;;;;;10.68;9.88;;;;;;;;;;5090329;28;20527;-70
2023/08/25 06:50:56;;;;;;;11.80;10.80;;;;;;;;;;5089312;28;20928;-71
2023/08/25 06:53:24;;;;;;;10.77;9.95;;;;;;;;;;5089129;28;20880;-71
2023/08/25 06:55:51;;;;;;;11.30;10.30;;;;;;;;;;5088735;28;20474;-68
2023/08/25 06:58:18;;;;;;;11.07;10.18;;;;;;;;;;5088241;28;20437;-69
2023/08/25 07:00:45;;;;;;;11.30;10.20;;;;;;;;;;5087684;28;20441;-70
2023/08/25 07:03:13;;;;;;;10.23;9.38;;;;;;;;;;5089861;28;20433;-69
2023/08/25 07:05:40;;;;;;;10.88;9.90;;;;;;;;;;5091699;28;20410;-71
2023/08/25 07:08:07;;;;;;;9.93;9.13;;;;;;;;;;5083712;28;20429;-70
2023/08/25 07:10:36;;;;;;;9.80;9.00;;;;;;;;;;5087629;28;20472;-69
2023/08/25 07:13:04;;;;;;;10.60;9.60;;;;;;;;;;5079666;28;20426;-69
2023/08/25 07:15:31;;;;;;;9.98;9.10;;;;;;;;;;5090228;28;20816;-69
2023/08/25 07:17:59;;;;;;;10.90;9.90;;;;;;;;;;5088888;28;20438;-69
2023/08/25 07:20:27;;;;;;;13.00;11.68;;;;;;;;;;5084887;28;20432;-68
2023/08/25 07:22:54;;;;;;;14.55;13.15;;;;;;;;;;5085841;28;21004;-68
2023/08/25 07:25:21;;;;;;;14.70;13.50;;;;;;;;;;5087340;28;20475;-67
2023/08/25 07:27:50;;;;;;;15.45;13.88;;;;;;;;;;5090353;28;20414;-69
2023/08/25 07:30:17;;;;;;;14.70;13.40;;;;;;;;;;5089282;28;20410;-68
2023/08/25 07:32:44;;;;;;;16.13;14.65;;;;;;;;;;5087462;28;20432;-69
2023/08/25 07:35:11;;;;;;;15.75;14.25;;;;;;;;;;5081721;28;20406;-68
2023/08/25 07:37:41;;;;;;;15.15;13.85;;;;;;;;;;5087306;28;20441;-68
2023/08/25 07:40:09;;;;;;;14.98;13.63;;;;;;;;;;5081461;28;20414;-68
2023/08/25 07:42:36;;;;;;;15.27;13.77;;;;;;;;;;5088210;28;20463;-68
2023/08/25 07:45:05;;;;;;;14.25;12.98;;;;;;;;;;5087973;28;20432;-68
2023/08/25 07:47:32;;;;;;;14.00;12.70;;;;;;;;;;5088509;28;20918;-69
2023/08/25 07:49:59;;;;;;;14.73;13.43;;;;;;;;;;5089072;28;20880;-71
2023/08/25 07:52:26;;;;;;;14.07;12.77;;;;;;;;;;5087312;28;20525;-68
2023/08/25 07:54:54;;;;;;;13.30;12.20;;;;;;;;;;5087099;28;20619;-70
2023/08/25 07:57:21;;;;;;;13.18;12.07;;;;;;;;;;5087852;28;20521;-68
2023/08/25 07:59:48;;;;;;;14.60;13.20;;;;;;;;;;5087908;28;20425;-68
2023/08/25 08:02:17;;;;;;;13.70;12.50;;;;;;;;;;5085646;28;20406;-68
2023/08/25 08:04:44;;;;;;;14.82;13.63;;;;;;;;;;5086512;28;20421;-68
2023/08/25 08:07:11;;;;;;;14.50;13.13;;;;;;;;;;5088491;28;20440;-68
2023/08/25 08:09:38;;;;;;;14.02;12.73;;;;;;;;;;5083948;28;20430;-68
2023/08/25 08:12:05;;;;;;;13.60;12.50;;;;;;;;;;5088569;28;20440;-69
2023/08/25 08:14:35;;;;;;;12.97;11.77;;;;;;;;;;5088746;28;20885;-68
2023/08/25 08:17:02;;;;;;;13.10;12.00;;;;;;;;;;5087754;28;20483;-68
2023/08/25 08:19:31;;;;;;;13.57;12.13;;;;;;;;;;5088121;28;20508;-68
2023/08/25 08:21:58;;;;;;;16.63;14.45;;;;;;;;;;5088036;28;20410;-68
2023/08/25 08:24:26;;;;;;;15.68;14.07;;;;;;;;;;5087215;28;20823;-68
2023/08/25 08:26:53;;;;;;;15.45;14.05;;;;;;;;;;5088206;28;20544;-68
2023/08/25 08:29:20;;;;;;;17.38;14.57;;;;;;;;;;5085241;28;20444;-68
2023/08/25 08:31:47;;;;;;;20.13;15.40;;;;;;;;;;5088104;28;20406;-68
2023/08/25 08:34:14;;;;;;;17.20;15.40;;;;;;;;;;5088520;28;20518;-68
2023/08/25 08:36:43;;;;;;;19.08;17.27;;;;;;;;;;5087292;28;20434;-68
2023/08/25 08:39:10;;;;;;;19.50;17.40;;;;;;;;;;5086984;28;20430;-68
2023/08/25 08:41:37;;;;;;;18.08;16.25;;;;;;;;;;5087886;28;20911;-68
2023/08/25 08:44:05;;;;;;;19.05;17.17;;;;;;;;;;5087249;28;20928;-68
2023/08/25 08:46:34;;;;;;;19.35;17.35;;;;;;;;;;5088358;28;20416;-68
2023/08/25 08:49:02;;;;;;;18.35;16.65;;;;;;;;;;5087899;28;20405;-68
2023/08/25 08:51:30;;;;;;;19.73;17.83;;;;;;;;;;5086810;28;20425;-68
2023/08/25 08:53:59;;;;;;;19.17;17.27;;;;;;;;;;5085848;28;20479;-68
2023/08/25 08:56:27;;;;;;;18.50;16.60;;;;;;;;;;5088058;28;20421;-70
2023/08/25 08:58:54;;;;;;;19.25;17.40;;;;;;;;;;5087420;28;20421;-68
2023/08/25 09:01:21;;;;;;;20.60;18.60;;;;;;;;;;5106733;22;20966;-70
2023/08/25 09:03:50;;;;;;;19.50;17.50;;;;;;;;;;5087866;28;20433;-70
2023/08/25 09:06:18;;;;;;;18.30;16.45;;;;;;;;;;5088174;28;20425;-70
2023/08/25 09:08:46;;;;;;;22.23;20.02;;;;;;;;;;5085989;28;20430;-70
2023/08/25 09:11:17;;;;;;;20.17;18.27;;;;;;;;;;5094895;28;20404;-70
2023/08/25 09:13:53;;;;;;;19.50;17.70;;;;;;;;;;5107531;28;20445;-71
2023/08/25 09:16:20;;;;;;;16.92;15.32;;;;;;;;;;5112010;28;20427;-68
2023/08/25 09:18:47;;;;;;;17.33;15.82;;;;;;;;;;5130606;28;20403;-68
2023/08/25 09:21:18;;;;;;;15.10;13.70;;;;;;;;;;5130905;28;20404;-70
2023/08/25 09:23:55;;;;;;;13.40;12.20;;;;;;;;;;5122048;28;20469;-68
2023/08/25 09:26:24;;;;;;;12.13;11.02;;;;;;;;;;5128595;28;20415;-68
2023/08/25 09:28:53;;;;;;;11.60;10.65;;;;;;;;;;5119023;28;20428;-69
2023/08/25 09:31:24;;;;;;;10.10;9.30;;;;;;;;;;5110127;28;20424;-70
2023/08/25 09:33:52;;;;;;;10.82;9.82;;;;;;;;;;5108576;28;20416;-70
2023/08/25 09:36:19;;;;;;;10.10;9.20;;;;;;;;;;5108566;28;20882;-70
2023/08/25 09:38:47;;;;;;;11.40;10.40;;;;;;;;;;5107442;28;20431;-71
2023/08/25 09:41:23;;;;;;;11.60;10.70;;;;;;;;;;5108323;28;20412;-70
2023/08/25 09:43:51;;;;;;;12.63;10.10;;;;;;;;;;5107114;28;20412;-72
2023/08/25 09:46:19;;;;;;;12.00;10.90;;;;;;;;;;5102297;28;20430;-72
2023/08/25 09:48:46;;;;;;;11.90;11.00;;;;;;;;;;5104092;28;20499;-66
2023/08/25 09:51:17;;;;;;;12.45;11.45;;;;;;;;;;5103459;28;20420;-67
2023/08/25 09:53:45;;;;;;;11.70;10.70;;;;;;;;;;5097236;28;20485;-69
2023/08/25 09:56:14;;;;;;;11.27;10.38;;;;;;;;;;5093146;28;20419;-69
2023/08/25 09:58:41;;;;;;;10.93;9.98;;;;;;;;;;5106309;28;20408;-68
2023/08/25 10:01:10;;;;;;;11.00;10.10;;;;;;;;;;5104183;28;20477;-70
2023/08/25 10:03:37;;;;;;;11.43;10.55;;;;;;;;;;5093969;28;20431;-68
2023/08/25 10:06:05;;;;;;;10.50;9.70;;;;;;;;;;5101137;28;20499;-69
2023/08/25 10:08:32;;;;;;;11.00;10.10;;;;;;;;;;5106272;28;20459;-70
2023/08/25 10:11:00;;;;;;;11.80;10.87;;;;;;;;;;5111545;28;20412;-68
2023/08/25 10:13:28;;;;;;;12.73;11.73;;;;;;;;;;5111319;28;20405;-68
2023/08/25 10:15:55;;;;;;;11.63;10.63;;;;;;;;;;5110746;28;20403;-69
2023/08/25 10:18:24;;;;;;;10.93;9.93;;;;;;;;;;5106230;28;20921;-69
2023/08/25 10:20:51;;;;;;;10.98;10.07;;;;;;;;;;5109083;28;20748;-70
2023/08/25 10:23:19;;;;;;;10.20;9.40;;;;;;;;;;5105985;27;20450;-70
2023/08/25 10:25:46;;;;;;;10.27;9.48;;;;;;;;;;5116324;27;20424;-69
2023/08/25 10:28:14;;;;;;;10.53;9.67;;;;;;;;;;5113414;28;20937;-69
2023/08/25 10:30:41;;;;;;;10.45;9.63;;;;;;;;;;5113058;28;20416;-68
2023/08/25 10:33:10;;;;;;;10.82;10.02;;;;;;;;;;5110974;28;20435;-71
2023/08/25 10:35:45;;;;;;;9.70;9.00;;;;;;;;;;5112814;28;20400;-71
2023/08/25 10:38:23;;;;;;;10.80;10.00;;;;;;;;;;5106948;27;20432;-70
2023/08/25 10:40:50;;;;;;;11.20;10.30;;;;;;;;;;5107119;28;20413;-71
2023/08/25 10:43:24;;;;;;;11.52;10.63;;;;;;;;;;5112098;28;20414;-69
2023/08/25 10:45:51;;;;;;;11.70;10.70;;;;;;;;;;5111755;28;20420;-69
2023/08/25 10:48:19;;;;;;;11.23;10.32;;;;;;;;;;5107179;27;20549;-70
2023/08/25 10:50:48;;;;;;;11.23;10.23;;;;;;;;;;5104221;28;20894;-70
2023/08/25 10:53:29;;;;;;;9.65;8.95;;;;;;;;;;5110259;28;20428;-69
2023/08/25 10:55:57;;;;;;;7.78;7.18;;;;;;;;;;5109362;27;20917;-70
2023/08/25 10:58:32;;;;;;;7.35;6.75;;;;;;;;;;5106424;27;20432;-70
2023/08/25 11:01:02;;;;;;;8.00;7.30;;;;;;;;;;5106869;27;20428;-71
2023/08/25 11:03:44;;;;;;;8.50;7.60;;;;;;;;;;5109294;28;20456;-70
2023/08/25 11:06:26;;;;;;;9.70;8.85;;;;;;;;;;5104898;28;20439;-70
2023/08/25 11:08:58;;;;;;;10.93;10.10;;;;;;;;;;5105072;28;20432;-71
2023/08/25 11:11:25;;;;;;;10.13;9.32;;;;;;;;;;5111515;28;20416;-70
2023/08/25 11:13:53;;;;;;;8.68;8.00;;;;;;;;;;5104147;28;20424;-69
2023/08/25 11:16:20;;;;;;;8.48;7.78;;;;;;;;;;5106042;28;20435;-69
2023/08/25 11:18:47;;;;;;;8.30;7.50;;;;;;;;;;5103537;28;20448;-70
2023/08/25 11:21:15;;;;;;;8.13;7.43;;;;;;;;;;5108231;27;20424;-70
2023/08/25 11:23:43;;;;;;;8.88;8.07;;;;;;;;;;5110604;27;20416;-69
2023/08/25 11:26:15;;;;;;;8.98;8.27;;;;;;;;;;5107039;28;20430;-70
2023/08/25 11:28:42;;;;;;;8.65;7.95;;;;;;;;;;5110940;28;20431;-71
2023/08/25 11:31:10;;;;;;;8.77;8.07;;;;;;;;;;5108570;28;20424;-70
2023/08/25 11:33:37;;;;;;;9.50;8.60;;;;;;;;;;5109695;28;20428;-69
2023/08/25 11:36:05;;;;;;;9.93;9.23;;;;;;;;;;5110793;28;20484;-69
2023/08/25 11:38:32;;;;;;;10.05;9.15;;;;;;;;;;5110608;27;20424;-70
2023/08/25 11:40:59;;;;;;;9.63;8.82;;;;;;;;;;5115725;28;20432;-70
2023/08/25 11:43:32;;;;;;;9.80;8.90;;;;;;;;;;5105831;28;20428;-69
2023/08/25 11:45:59;;;;;;;9.80;9.00;;;;;;;;;;5108937;27;20422;-74
2023/08/25 11:48:27;;;;;;;15.47;12.83;;;;;;;;;;5105589;28;20455;-71
2023/08/25 11:50:54;;;;;;;15.00;13.60;;;;;;;;;;5105677;28;20890;-71
2023/08/25 11:53:21;;;;;;;17.50;14.43;;;;;;;;;;5103707;27;20440;-72
2023/08/25 11:56:01;;;;;;;16.00;14.60;;;;;;;;;;5134590;28;20410;-70
2023/08/25 11:58:34;;;;;;;17.77;16.08;;;;;;;;;;5127297;27;20420;-72
2023/08/25 12:01:01;;;;;;;17.58;15.98;;;;;;;;;;5121283;27;20416;-73
2023/08/25 12:03:28;;;;;;;19.93;18.03;;;;;;;;;;5106704;27;20455;-75
2023/08/25 12:05:55;;;;;;;29.27;26.38;;;;;;;;;;5108744;28;20420;-75
2023/08/25 12:08:24;;;;;;;35.83;32.03;;;;;;;;;;5104470;28;20439;-75
2023/08/25 12:10:51;;;;;;;21.27;19.45;;;;;;;;;;5106560;27;20434;-75
2023/08/25 12:13:24;;;;;;;18.85;17.35;;;;;;;;;;5109585;28;20432;-73
2023/08/25 12:15:53;;;;;;;20.77;18.95;;;;;;;;;;5110499;28;20460;-73
2023/08/25 12:18:20;;;;;;;19.27;17.60;;;;;;;;;;5115049;28;20478;-76
2023/08/25 12:20:47;;;;;;;20.08;18.50;;;;;;;;;;5109069;28;20910;-75
2023/08/25 12:23:15;;;;;;;18.70;17.30;;;;;;;;;;5100889;28;20428;-76
2023/08/25 12:25:43;;;;;;;18.60;17.10;;;;;;;;;;5104291;27;20424;-72
2023/08/25 12:28:10;;;;;;;19.08;17.48;;;;;;;;;;5105411;28;20431;-74
2023/08/25 12:30:37;;;;;;;19.48;17.88;;;;;;;;;;5108882;28;20783;-74
2023/08/25 12:33:06;;;;;;;17.27;15.93;;;;;;;;;;5108569;27;20428;-75
2023/08/25 12:35:34;;;;;;;16.80;15.50;;;;;;;;;;5108971;28;20420;-76
2023/08/25 12:38:02;;;;;;;14.60;13.60;;;;;;;;;;5106806;28;20434;-73
2023/08/25 12:40:29;;;;;;;15.20;14.00;;;;;;;;;;5100393;28;20460;-74
2023/08/25 12:42:56;;;;;;;14.77;13.68;;;;;;;;;;5099989;28;20451;-73
2023/08/25 12:45:24;;;;;;;16.50;15.20;;;;;;;;;;5105537;28;20790;-72
2023/08/25 12:47:51;;;;;;;15.65;14.50;;;;;;;;;;5107918;28;20408;-69
2023/08/25 12:50:20;;;;;;;14.23;13.20;;;;;;;;;;5109049;28;20415;-70
2023/08/25 12:52:47;;;;;;;14.65;13.55;;;;;;;;;;5105629;28;20430;-70
2023/08/25 12:55:15;;;;;;;14.00;12.90;;;;;;;;;;5101877;28;20432;-68
2023/08/25 12:57:43;;;;;;;14.40;13.30;;;;;;;;;;5107416;28;20489;-69
2023/08/25 13:00:11;;;;;;;13.77;12.57;;;;;;;;;;5103749;28;20485;-70
2023/08/25 13:02:38;;;;;;;12.32;11.43;;;;;;;;;;5106911;28;20451;-70
2023/08/25 13:05:09;;;;;;;12.07;11.23;;;;;;;;;;5102337;28;20922;-71
2023/08/25 13:07:38;;;;;;;10.55;9.75;;;;;;;;;;5106260;28;20431;-69
2023/08/25 13:10:06;;;;;;;8.20;7.50;;;;;;;;;;5106231;28;20430;-70
2023/08/25 13:12:33;;;;;;;7.55;6.90;;;;;;;;;;5103269;28;20428;-68
2023/08/25 13:15:00;;;;;;;7.40;6.80;;;;;;;;;;5103334;28;20451;-71
2023/08/25 13:17:28;;;;;;;6.43;5.93;;;;;;;;;;5108454;28;20906;-71
2023/08/25 13:19:55;;;;;;;5.70;5.25;;;;;;;;;;5108034;28;20427;-69
2023/08/25 13:22:22;;;;;;;4.70;4.30;;;;;;;;;;5107270;28;20478;-69
2023/08/25 13:24:50;;;;;;;4.20;3.90;;;;;;;;;;5096538;28;20436;-70
2023/08/25 13:27:17;;;;;;;4.53;3.95;;;;;;;;;;5103797;28;20791;-68
2023/08/25 13:29:44;;;;;;;4.03;3.72;;;;;;;;;;5096932;28;20459;-70
2023/08/25 13:32:12;;;;;;;4.07;3.78;;;;;;;;;;5105470;28;20793;-67
2023/08/25 13:34:39;;;;;;;3.80;3.50;;;;;;;;;;5110381;27;20424;-70
2023/08/25 13:37:06;;;;;;;3.90;3.60;;;;;;;;;;5104420;28;20422;-69
2023/08/25 13:39:35;;;;;;;4.18;3.70;;;;;;;;;;5107500;28;20428;-71
2023/08/25 13:42:03;;;;;;;4.05;3.75;;;;;;;;;;5109479;28;20498;-67
2023/08/25 13:44:30;;;;;;;4.57;4.28;;;;;;;;;;5105422;27;20423;-65
2023/08/25 13:46:57;;;;;;;5.35;4.95;;;;;;;;;;5104096;28;20902;-69
2023/08/25 13:49:24;;;;;;;5.00;4.60;;;;;;;;;;5105733;28;20428;-66
2023/08/25 13:51:52;;;;;;;5.30;4.90;;;;;;;;;;5100603;28;20429;-67
2023/08/25 13:54:19;;;;;;;5.13;4.63;;;;;;;;;;5106928;28;20424;-66
2023/08/25 13:56:46;;;;;;;4.68;4.38;;;;;;;;;;5132943;27;20415;-65
2023/08/25 13:59:14;;;;;;;4.40;4.10;;;;;;;;;;5124352;28;20415;-68
2023/08/25 14:01:41;;;;;;;4.25;3.95;;;;;;;;;;5102137;27;20437;-68
2023/08/25 14:04:09;;;;;;;4.15;3.80;;;;;;;;;;5109052;27;20775;-69
2023/08/25 14:06:36;;;;;;;3.78;3.47;;;;;;;;;;5098803;27;20435;-68
2023/08/25 14:09:04;;;;;;;3.60;3.30;;;;;;;;;;5104783;28;20780;-70
2023/08/25 14:11:31;;;;;;;3.22;3.00;;;;;;;;;;5102849;28;20462;-69
2023/08/25 14:13:58;;;;;;;3.90;3.60;;;;;;;;;;5109358;27;20437;-69
2023/08/25 14:16:27;;;;;;;3.28;3.00;;;;;;;;;;5105645;28;20427;-70
2023/08/25 14:18:54;;;;;;;4.18;3.80;;;;;;;;;;5106208;28;20431;-69
2023/08/25 14:21:21;;;;;;;3.40;3.10;;;;;;;;;;5106982;28;20428;-67
2023/08/25 14:23:48;;;;;;;3.85;3.17;;;;;;;;;;5099944;27;20432;-70
2023/08/25 14:26:15;;;;;;;3.80;3.50;;;;;;;;;;5105875;28;20452;-70
2023/08/25 14:28:43;;;;;;;3.80;3.40;;;;;;;;;;5110025;28;20418;-70
2023/08/25 14:31:10;;;;;;;4.38;3.70;;;;;;;;;;5111826;28;20416;-70
2023/08/25 14:33:38;;;;;;;4.20;3.90;;;;;;;;;;5110138;28;20435;-68
2023/08/25 14:36:05;;;;;;;4.75;4.45;;;;;;;;;;5111255;28;20404;-69